sensor_id;sensor_type;location;lat;lon;timestamp;temperature;humidity
44565;DHT22;30275;51.822;-0.326;2023-02-15T00:02:18;-0.70;99.90
44565;DHT22;30275;51.822;-0.326;2023-02-15T00:04:45;-0.80;99.90
44565;DHT22;30275;51.822;-0.326;2023-02-15T00:07:18;-0.90;99.90
44565;DHT22;30275;51.822;-0.326;2023-02-15T00:09:47;-0.90;99.90
44565;DHT22;30275;51.822;-0.326;2023-02-15T00:12:14;-0.90;99.90
44565;DHT22;30275;51.822;-0.326;2023-02-15T00:14:39;-0.70;99.90
44565;DHT22;30275;51.822;-0.326;2023-02-15T00:17:05;-0.70;99.90
44565;DHT22;30275;51.822;-0.326;2023-02-15T00:19:31;-0.50;99.90
44565;DHT22;30275;51.822;-0.326;2023-02-15T00:21:57;-0.40;99.90
44565;DHT22;30275;51.822;-0.326;2023-02-15T00:24:22;0.00;99.90
44565;DHT22;30275;51.822;-0.326;2023-02-15T00:26:48;0.20;99.90
44565;DHT22;30275;51.822;-0.326;2023-02-15T00:29:15;0.30;99.90
44565;DHT22;30275;51.822;-0.326;2023-02-15T00:31:41;0.20;99.90
44565;DHT22;30275;51.822;-0.326;2023-02-15T00:34:21;-0.10;99.90
44565;DHT22;30275;51.822;-0.326;2023-02-15T00:36:47;-0.20;99.90
44565;DHT22;30275;51.822;-0.326;2023-02-15T00:39:12;-0.20;99.90
44565;DHT22;30275;51.822;-0.326;2023-02-15T00:41:38;-0.30;99.90
44565;DHT22;30275;51.822;-0.326;2023-02-15T00:44:04;-0.30;99.90
44565;DHT22;30275;51.822;-0.326;2023-02-15T00:46:31;-0.20;99.90
44565;DHT22;30275;51.822;-0.326;2023-02-15T00:48:57;-0.10;99.90
44565;DHT22;30275;51.822;-0.326;2023-02-15T00:51:22;-0.20;99.90
44565;DHT22;30275;51.822;-0.326;2023-02-15T00:53:48;-0.30;99.90
44565;DHT22;30275;51.822;-0.326;2023-02-15T00:56:14;-0.30;99.90
44565;DHT22;30275;51.822;-0.326;2023-02-15T00:58:40;-0.30;99.90
44565;DHT22;30275;51.822;-0.326;2023-02-15T01:01:11;-0.30;99.90
44565;DHT22;30275;51.822;-0.326;2023-02-15T01:03:37;-0.20;99.90
44565;DHT22;30275;51.822;-0.326;2023-02-15T01:06:04;-0.20;99.90
44565;DHT22;30275;51.822;-0.326;2023-02-15T01:08:29;-0.30;99.90
44565;DHT22;30275;51.822;-0.326;2023-02-15T01:10:55;-0.30;99.90
44565;DHT22;30275;51.822;-0.326;2023-02-15T01:13:21;-0.30;99.90
44565;DHT22;30275;51.822;-0.326;2023-02-15T01:15:53;-0.30;99.90
44565;DHT22;30275;51.822;-0.326;2023-02-15T01:18:20;-0.20;99.90
44565;DHT22;30275;51.822;-0.326;2023-02-15T01:20:46;-0.20;99.90
44565;DHT22;30275;51.822;-0.326;2023-02-15T01:23:13;-0.20;99.90
44565;DHT22;30275;51.822;-0.326;2023-02-15T01:25:38;-0.20;99.90
44565;DHT22;30275;51.822;-0.326;2023-02-15T01:28:04;-0.40;99.90
44565;DHT22;30275;51.822;-0.326;2023-02-15T01:30:30;-0.20;99.90
44565;DHT22;30275;51.822;-0.326;2023-02-15T01:32:55;-0.40;99.90
44565;DHT22;30275;51.822;-0.326;2023-02-15T01:35:21;-0.40;99.90
44565;DHT22;30275;51.822;-0.326;2023-02-15T01:37:47;-0.40;99.90
44565;DHT22;30275;51.822;-0.326;2023-02-15T01:40:14;-0.50;99.90
44565;DHT22;30275;51.822;-0.326;2023-02-15T01:42:40;-0.50;99.90
44565;DHT22;30275;51.822;-0.326;2023-02-15T01:48:08;0.10;99.90
44565;DHT22;30275;51.822;-0.326;2023-02-15T01:50:46;-0.10;99.90
44565;DHT22;30275;51.822;-0.326;2023-02-15T01:55:55;-0.30;99.90
44565;DHT22;30275;51.822;-0.326;2023-02-15T01:58:24;-0.10;99.90
44565;DHT22;30275;51.822;-0.326;2023-02-15T02:00:50;-0.30;99.90
44565;DHT22;30275;51.822;-0.326;2023-02-15T02:03:16;-0.60;99.90
44565;DHT22;30275;51.822;-0.326;2023-02-15T02:05:42;-0.90;99.90
44565;DHT22;30275;51.822;-0.326;2023-02-15T02:08:08;-1.00;99.90
44565;DHT22;30275;51.822;-0.326;2023-02-15T02:10:37;-1.30;99.90
44565;DHT22;30275;51.822;-0.326;2023-02-15T02:13:04;-1.00;99.90
44565;DHT22;30275;51.822;-0.326;2023-02-15T02:15:40;-0.80;99.90
44565;DHT22;30275;51.822;-0.326;2023-02-15T02:18:20;-0.70;99.90
44565;DHT22;30275;51.822;-0.326;2023-02-15T02:23:49;-1.20;99.90
44565;DHT22;30275;51.822;-0.326;2023-02-15T02:34:31;-0.90;99.90
44565;DHT22;30275;51.822;-0.326;2023-02-15T02:39:50;-0.70;99.90
44565;DHT22;30275;51.822;-0.326;2023-02-15T02:42:42;-1.00;99.90
44565;DHT22;30275;51.822;-0.326;2023-02-15T02:45:10;-1.30;99.90
44565;DHT22;30275;51.822;-0.326;2023-02-15T02:48:02;-1.40;99.90
44565;DHT22;30275;51.822;-0.326;2023-02-15T02:50:30;-1.40;99.90
44565;DHT22;30275;51.822;-0.326;2023-02-15T02:52:57;-1.10;99.90
44565;DHT22;30275;51.822;-0.326;2023-02-15T02:55:46;-1.20;99.90
44565;DHT22;30275;51.822;-0.326;2023-02-15T03:01:10;-1.30;99.90
44565;DHT22;30275;51.822;-0.326;2023-02-15T03:03:44;-1.30;99.90
44565;DHT22;30275;51.822;-0.326;2023-02-15T03:06:20;-1.40;99.90
44565;DHT22;30275;51.822;-0.326;2023-02-15T03:08:53;-1.40;99.90
44565;DHT22;30275;51.822;-0.326;2023-02-15T03:11:20;-1.50;99.90
44565;DHT22;30275;51.822;-0.326;2023-02-15T03:13:48;-1.40;99.90
44565;DHT22;30275;51.822;-0.326;2023-02-15T03:16:16;-1.40;99.90
44565;DHT22;30275;51.822;-0.326;2023-02-15T03:19:35;-1.40;99.90
44565;DHT22;30275;51.822;-0.326;2023-02-15T03:22:18;-1.30;99.90
44565;DHT22;30275;51.822;-0.326;2023-02-15T03:25:11;-1.20;99.90
44565;DHT22;30275;51.822;-0.326;2023-02-15T03:27:47;-1.40;99.90
44565;DHT22;30275;51.822;-0.326;2023-02-15T03:30:15;-1.40;99.90
44565;DHT22;30275;51.822;-0.326;2023-02-15T03:32:44;-1.40;99.90
44565;DHT22;30275;51.822;-0.326;2023-02-15T03:35:11;-1.40;99.90
44565;DHT22;30275;51.822;-0.326;2023-02-15T03:40:42;-0.90;99.90
44565;DHT22;30275;51.822;-0.326;2023-02-15T03:45:59;-1.00;99.90
44565;DHT22;30275;51.822;-0.326;2023-02-15T03:48:54;-1.20;99.90
44565;DHT22;30275;51.822;-0.326;2023-02-15T03:51:25;-1.40;99.90
44565;DHT22;30275;51.822;-0.326;2023-02-15T03:54:31;-1.30;99.90
44565;DHT22;30275;51.822;-0.326;2023-02-15T03:57:27;-1.50;99.90
44565;DHT22;30275;51.822;-0.326;2023-02-15T04:00:22;-1.60;99.90
44565;DHT22;30275;51.822;-0.326;2023-02-15T04:03:52;-1.70;99.90
44565;DHT22;30275;51.822;-0.326;2023-02-15T04:05:52;-1.70;99.90
44565;DHT22;30275;51.822;-0.326;2023-02-15T04:08:18;-1.30;99.90
44565;DHT22;30275;51.822;-0.326;2023-02-15T04:10:43;-1.10;99.90
44565;DHT22;30275;51.822;-0.326;2023-02-15T04:13:23;-0.90;99.90
44565;DHT22;30275;51.822;-0.326;2023-02-15T04:15:50;-1.10;99.90
44565;DHT22;30275;51.822;-0.326;2023-02-15T04:18:42;-1.40;99.90
44565;DHT22;30275;51.822;-0.326;2023-02-15T04:21:28;-1.50;99.90
44565;DHT22;30275;51.822;-0.326;2023-02-15T04:24:13;-1.50;99.90
44565;DHT22;30275;51.822;-0.326;2023-02-15T04:26:57;-1.60;99.90
44565;DHT22;30275;51.822;-0.326;2023-02-15T04:29:25;-1.60;99.90
44565;DHT22;30275;51.822;-0.326;2023-02-15T04:31:51;-1.40;99.90
44565;DHT22;30275;51.822;-0.326;2023-02-15T04:34:17;-1.20;99.90
44565;DHT22;30275;51.822;-0.326;2023-02-15T04:36:43;-1.40;99.90
44565;DHT22;30275;51.822;-0.326;2023-02-15T04:39:12;-1.50;99.90
44565;DHT22;30275;51.822;-0.326;2023-02-15T04:41:38;-1.70;99.90
44565;DHT22;30275;51.822;-0.326;2023-02-15T04:44:04;-1.60;99.90
44565;DHT22;30275;51.822;-0.326;2023-02-15T04:46:29;-1.40;99.90
44565;DHT22;30275;51.822;-0.326;2023-02-15T04:48:55;-1.50;99.90
44565;DHT22;30275;51.822;-0.326;2023-02-15T04:51:21;-1.60;99.90
44565;DHT22;30275;51.822;-0.326;2023-02-15T04:53:47;-1.50;99.90
44565;DHT22;30275;51.822;-0.326;2023-02-15T04:56:12;-1.50;99.90
44565;DHT22;30275;51.822;-0.326;2023-02-15T04:58:38;-1.50;99.90
44565;DHT22;30275;51.822;-0.326;2023-02-15T05:01:07;-1.40;99.90
44565;DHT22;30275;51.822;-0.326;2023-02-15T05:03:34;-1.50;99.90
44565;DHT22;30275;51.822;-0.326;2023-02-15T05:06:00;-1.60;99.90
44565;DHT22;30275;51.822;-0.326;2023-02-15T05:08:25;-1.60;99.90
44565;DHT22;30275;51.822;-0.326;2023-02-15T05:10:51;-1.30;99.90
44565;DHT22;30275;51.822;-0.326;2023-02-15T05:13:17;-1.10;99.90
44565;DHT22;30275;51.822;-0.326;2023-02-15T05:15:47;-1.20;99.90
44565;DHT22;30275;51.822;-0.326;2023-02-15T05:18:13;-1.50;99.90
44565;DHT22;30275;51.822;-0.326;2023-02-15T05:20:39;-1.40;99.90
44565;DHT22;30275;51.822;-0.326;2023-02-15T05:23:04;-1.50;99.90
44565;DHT22;30275;51.822;-0.326;2023-02-15T05:25:30;-1.60;99.90
44565;DHT22;30275;51.822;-0.326;2023-02-15T05:28:14;-1.50;99.90
44565;DHT22;30275;51.822;-0.326;2023-02-15T05:30:50;-1.50;99.90
44565;DHT22;30275;51.822;-0.326;2023-02-15T05:33:17;-1.70;99.90
44565;DHT22;30275;51.822;-0.326;2023-02-15T05:35:42;-1.70;99.90
44565;DHT22;30275;51.822;-0.326;2023-02-15T05:38:08;-1.40;99.90
44565;DHT22;30275;51.822;-0.326;2023-02-15T05:40:34;-1.50;99.90
44565;DHT22;30275;51.822;-0.326;2023-02-15T05:43:00;-1.50;99.90
44565;DHT22;30275;51.822;-0.326;2023-02-15T05:45:25;-1.50;99.90
44565;DHT22;30275;51.822;-0.326;2023-02-15T05:47:51;-1.50;99.90
44565;DHT22;30275;51.822;-0.326;2023-02-15T05:50:17;-1.50;99.90
44565;DHT22;30275;51.822;-0.326;2023-02-15T05:52:43;-1.40;99.90
44565;DHT22;30275;51.822;-0.326;2023-02-15T05:55:08;-1.20;99.90
44565;DHT22;30275;51.822;-0.326;2023-02-15T05:57:35;-1.00;99.90
44565;DHT22;30275;51.822;-0.326;2023-02-15T06:00:02;-0.90;99.90
44565;DHT22;30275;51.822;-0.326;2023-02-15T06:02:32;-1.10;99.90
44565;DHT22;30275;51.822;-0.326;2023-02-15T06:04:58;-1.00;99.90
44565;DHT22;30275;51.822;-0.326;2023-02-15T06:07:24;-0.80;99.90
44565;DHT22;30275;51.822;-0.326;2023-02-15T06:09:50;-0.70;99.90
44565;DHT22;30275;51.822;-0.326;2023-02-15T06:12:15;-0.90;99.90
44565;DHT22;30275;51.822;-0.326;2023-02-15T06:14:41;-0.70;99.90
44565;DHT22;30275;51.822;-0.326;2023-02-15T06:17:06;-0.90;99.90
44565;DHT22;30275;51.822;-0.326;2023-02-15T06:19:32;-1.20;99.90
44565;DHT22;30275;51.822;-0.326;2023-02-15T06:21:58;-1.40;99.90
44565;DHT22;30275;51.822;-0.326;2023-02-15T06:24:23;-1.40;99.90
44565;DHT22;30275;51.822;-0.326;2023-02-15T06:26:49;-1.30;99.90
44565;DHT22;30275;51.822;-0.326;2023-02-15T06:29:14;-1.00;99.90
44565;DHT22;30275;51.822;-0.326;2023-02-15T06:31:40;-1.20;99.90
44565;DHT22;30275;51.822;-0.326;2023-02-15T06:34:06;-1.30;99.90
44565;DHT22;30275;51.822;-0.326;2023-02-15T06:36:31;-1.10;99.90
44565;DHT22;30275;51.822;-0.326;2023-02-15T06:38:57;-0.80;99.90
44565;DHT22;30275;51.822;-0.326;2023-02-15T06:41:23;-0.80;99.90
44565;DHT22;30275;51.822;-0.326;2023-02-15T06:43:49;-0.80;99.90
44565;DHT22;30275;51.822;-0.326;2023-02-15T06:46:15;-1.00;99.90
44565;DHT22;30275;51.822;-0.326;2023-02-15T06:48:41;-1.20;99.90
44565;DHT22;30275;51.822;-0.326;2023-02-15T06:51:06;-1.30;99.90
44565;DHT22;30275;51.822;-0.326;2023-02-15T06:53:32;-1.20;99.90
44565;DHT22;30275;51.822;-0.326;2023-02-15T06:56:05;-1.10;99.90
44565;DHT22;30275;51.822;-0.326;2023-02-15T06:58:36;-1.20;99.90
44565;DHT22;30275;51.822;-0.326;2023-02-15T07:01:02;-1.00;99.90
44565;DHT22;30275;51.822;-0.326;2023-02-15T07:03:27;-1.20;99.90
44565;DHT22;30275;51.822;-0.326;2023-02-15T07:05:57;-1.30;99.90
44565;DHT22;30275;51.822;-0.326;2023-02-15T07:08:24;-1.20;99.90
44565;DHT22;30275;51.822;-0.326;2023-02-15T07:10:51;-1.20;99.90
44565;DHT22;30275;51.822;-0.326;2023-02-15T07:13:16;-1.30;99.90
44565;DHT22;30275;51.822;-0.326;2023-02-15T07:15:43;-1.20;99.90
44565;DHT22;30275;51.822;-0.326;2023-02-15T07:18:09;-1.10;99.90
44565;DHT22;30275;51.822;-0.326;2023-02-15T07:20:36;-1.20;99.90
44565;DHT22;30275;51.822;-0.326;2023-02-15T07:23:02;-1.20;99.90
44565;DHT22;30275;51.822;-0.326;2023-02-15T07:25:28;-1.00;99.90
44565;DHT22;30275;51.822;-0.326;2023-02-15T07:27:58;-0.80;99.90
44565;DHT22;30275;51.822;-0.326;2023-02-15T07:30:24;-0.70;99.90
44565;DHT22;30275;51.822;-0.326;2023-02-15T07:32:50;-0.90;99.90
44565;DHT22;30275;51.822;-0.326;2023-02-15T07:35:34;-0.90;99.90
44565;DHT22;30275;51.822;-0.326;2023-02-15T07:38:00;-0.80;99.90
44565;DHT22;30275;51.822;-0.326;2023-02-15T07:40:26;-0.80;99.90
44565;DHT22;30275;51.822;-0.326;2023-02-15T07:42:52;-0.70;99.90
44565;DHT22;30275;51.822;-0.326;2023-02-15T07:45:20;-0.70;99.90
44565;DHT22;30275;51.822;-0.326;2023-02-15T07:47:46;-0.50;99.90
44565;DHT22;30275;51.822;-0.326;2023-02-15T07:50:12;-0.40;99.90
44565;DHT22;30275;51.822;-0.326;2023-02-15T07:52:37;0.00;99.90
44565;DHT22;30275;51.822;-0.326;2023-02-15T07:55:03;0.20;99.90
44565;DHT22;30275;51.822;-0.326;2023-02-15T07:57:29;0.40;99.90
44565;DHT22;30275;51.822;-0.326;2023-02-15T07:59:54;0.50;99.90
44565;DHT22;30275;51.822;-0.326;2023-02-15T08:02:20;0.60;99.90
44565;DHT22;30275;51.822;-0.326;2023-02-15T08:04:45;0.70;99.90
44565;DHT22;30275;51.822;-0.326;2023-02-15T08:07:11;0.80;99.90
44565;DHT22;30275;51.822;-0.326;2023-02-15T08:09:37;0.90;99.90
44565;DHT22;30275;51.822;-0.326;2023-02-15T08:12:03;0.90;99.90
44565;DHT22;30275;51.822;-0.326;2023-02-15T08:14:29;1.10;99.90
44565;DHT22;30275;51.822;-0.326;2023-02-15T08:16:55;1.30;99.90
44565;DHT22;30275;51.822;-0.326;2023-02-15T08:19:29;1.40;99.90
44565;DHT22;30275;51.822;-0.326;2023-02-15T08:21:57;1.60;99.90
44565;DHT22;30275;51.822;-0.326;2023-02-15T08:24:25;1.60;99.90
44565;DHT22;30275;51.822;-0.326;2023-02-15T08:26:51;1.60;99.90
44565;DHT22;30275;51.822;-0.326;2023-02-15T08:29:20;1.80;99.90
44565;DHT22;30275;51.822;-0.326;2023-02-15T08:31:48;1.80;99.90
44565;DHT22;30275;51.822;-0.326;2023-02-15T08:34:16;2.00;99.90
44565;DHT22;30275;51.822;-0.326;2023-02-15T08:36:42;2.30;99.90
44565;DHT22;30275;51.822;-0.326;2023-02-15T08:39:11;2.50;99.90
44565;DHT22;30275;51.822;-0.326;2023-02-15T08:41:38;2.70;99.90
44565;DHT22;30275;51.822;-0.326;2023-02-15T08:44:06;2.80;99.90
44565;DHT22;30275;51.822;-0.326;2023-02-15T08:46:35;3.10;99.90
44565;DHT22;30275;51.822;-0.326;2023-02-15T08:49:01;3.50;99.90
44565;DHT22;30275;51.822;-0.326;2023-02-15T08:51:29;3.90;99.90
44565;DHT22;30275;51.822;-0.326;2023-02-15T08:53:57;4.30;99.90
44565;DHT22;30275;51.822;-0.326;2023-02-15T08:56:32;4.70;99.90
44565;DHT22;30275;51.822;-0.326;2023-02-15T08:58:58;5.00;99.90
44565;DHT22;30275;51.822;-0.326;2023-02-15T09:01:27;5.30;99.90
44565;DHT22;30275;51.822;-0.326;2023-02-15T09:03:57;6.00;99.90
44565;DHT22;30275;51.822;-0.326;2023-02-15T09:06:23;6.80;99.90
44565;DHT22;30275;51.822;-0.326;2023-02-15T09:08:50;7.40;99.90
44565;DHT22;30275;51.822;-0.326;2023-02-15T09:11:18;7.70;99.90
44565;DHT22;30275;51.822;-0.326;2023-02-15T09:13:48;8.00;99.90
44565;DHT22;30275;51.822;-0.326;2023-02-15T09:16:15;8.30;99.90
44565;DHT22;30275;51.822;-0.326;2023-02-15T09:18:43;8.20;99.90
44565;DHT22;30275;51.822;-0.326;2023-02-15T09:21:11;8.50;99.90
44565;DHT22;30275;51.822;-0.326;2023-02-15T09:23:39;9.00;99.90
44565;DHT22;30275;51.822;-0.326;2023-02-15T09:26:07;9.60;99.90
44565;DHT22;30275;51.822;-0.326;2023-02-15T09:28:34;10.60;99.90
44565;DHT22;30275;51.822;-0.326;2023-02-15T09:31:11;11.20;99.90
44565;DHT22;30275;51.822;-0.326;2023-02-15T09:33:38;11.30;99.90
44565;DHT22;30275;51.822;-0.326;2023-02-15T09:36:04;11.00;99.90
44565;DHT22;30275;51.822;-0.326;2023-02-15T09:38:31;10.70;99.90
44565;DHT22;30275;51.822;-0.326;2023-02-15T09:43:50;9.90;99.90
44565;DHT22;30275;51.822;-0.326;2023-02-15T09:52:22;8.60;99.90
44565;DHT22;30275;51.822;-0.326;2023-02-15T09:55:12;8.30;99.90
44565;DHT22;30275;51.822;-0.326;2023-02-15T09:57:50;8.30;99.90
44565;DHT22;30275;51.822;-0.326;2023-02-15T10:00:24;9.50;99.90
44565;DHT22;30275;51.822;-0.326;2023-02-15T10:03:23;10.40;99.90
44565;DHT22;30275;51.822;-0.326;2023-02-15T10:06:10;11.90;99.90
44565;DHT22;30275;51.822;-0.326;2023-02-15T10:14:39;14.60;99.90
44565;DHT22;30275;51.822;-0.326;2023-02-15T10:20:28;13.30;99.90
44565;DHT22;30275;51.822;-0.326;2023-02-15T10:28:20;11.70;99.90
44565;DHT22;30275;51.822;-0.326;2023-02-15T10:30:50;11.70;99.90
44565;DHT22;30275;51.822;-0.326;2023-02-15T10:33:42;11.90;99.90
44565;DHT22;30275;51.822;-0.326;2023-02-15T10:36:32;12.10;99.90
44565;DHT22;30275;51.822;-0.326;2023-02-15T10:42:10;14.50;99.90
44565;DHT22;30275;51.822;-0.326;2023-02-15T10:44:41;14.80;99.90
44565;DHT22;30275;51.822;-0.326;2023-02-15T10:55:17;16.60;99.60
44565;DHT22;30275;51.822;-0.326;2023-02-15T11:00:49;15.50;99.90
44565;DHT22;30275;51.822;-0.326;2023-02-15T11:06:17;16.20;99.90
44565;DHT22;30275;51.822;-0.326;2023-02-15T11:09:09;14.40;99.90
44565;DHT22;30275;51.822;-0.326;2023-02-15T11:11:49;14.00;99.90
44565;DHT22;30275;51.822;-0.326;2023-02-15T11:14:39;13.90;99.90
44565;DHT22;30275;51.822;-0.326;2023-02-15T11:17:14;14.70;99.90
44565;DHT22;30275;51.822;-0.326;2023-02-15T11:22:23;14.30;99.90
44565;DHT22;30275;51.822;-0.326;2023-02-15T11:24:49;13.80;99.90
44565;DHT22;30275;51.822;-0.326;2023-02-15T11:27:21;13.90;99.90
44565;DHT22;30275;51.822;-0.326;2023-02-15T11:29:58;13.80;99.90
44565;DHT22;30275;51.822;-0.326;2023-02-15T11:32:46;14.20;99.90
44565;DHT22;30275;51.822;-0.326;2023-02-15T11:38:10;15.10;99.90
44565;DHT22;30275;51.822;-0.326;2023-02-15T11:40:54;14.80;99.90
44565;DHT22;30275;51.822;-0.326;2023-02-15T11:43:31;15.20;99.90
44565;DHT22;30275;51.822;-0.326;2023-02-15T11:45:58;14.80;99.90
44565;DHT22;30275;51.822;-0.326;2023-02-15T11:48:24;15.20;99.90
44565;DHT22;30275;51.822;-0.326;2023-02-15T11:50:49;15.30;99.90
44565;DHT22;30275;51.822;-0.326;2023-02-15T11:53:20;15.30;99.90
44565;DHT22;30275;51.822;-0.326;2023-02-15T11:55:48;15.30;99.90
44565;DHT22;30275;51.822;-0.326;2023-02-15T12:03:46;14.60;99.90
44565;DHT22;30275;51.822;-0.326;2023-02-15T12:06:24;15.00;99.90
44565;DHT22;30275;51.822;-0.326;2023-02-15T12:11:53;14.90;99.90
44565;DHT22;30275;51.822;-0.326;2023-02-15T12:14:19;14.90;99.90
44565;DHT22;30275;51.822;-0.326;2023-02-15T12:16:50;14.90;99.90
44565;DHT22;30275;51.822;-0.326;2023-02-15T12:19:32;15.20;99.90
44565;DHT22;30275;51.822;-0.326;2023-02-15T12:22:02;14.80;99.90
44565;DHT22;30275;51.822;-0.326;2023-02-15T12:24:37;14.70;99.90
44565;DHT22;30275;51.822;-0.326;2023-02-15T12:27:14;14.70;99.90
44565;DHT22;30275;51.822;-0.326;2023-02-15T12:29:43;15.30;99.90
44565;DHT22;30275;51.822;-0.326;2023-02-15T12:32:27;15.20;99.90
44565;DHT22;30275;51.822;-0.326;2023-02-15T12:35:06;15.30;99.90
44565;DHT22;30275;51.822;-0.326;2023-02-15T12:37:33;15.30;99.90
44565;DHT22;30275;51.822;-0.326;2023-02-15T12:40:01;15.20;99.90
44565;DHT22;30275;51.822;-0.326;2023-02-15T12:42:41;15.00;99.90
44565;DHT22;30275;51.822;-0.326;2023-02-15T12:45:31;15.10;99.90
44565;DHT22;30275;51.822;-0.326;2023-02-15T12:50:39;15.40;99.90
44565;DHT22;30275;51.822;-0.326;2023-02-15T12:53:18;15.40;99.90
44565;DHT22;30275;51.822;-0.326;2023-02-15T12:55:51;15.40;99.90
44565;DHT22;30275;51.822;-0.326;2023-02-15T12:58:20;15.30;99.90
44565;DHT22;30275;51.822;-0.326;2023-02-15T13:00:47;15.60;99.90
44565;DHT22;30275;51.822;-0.326;2023-02-15T13:03:23;15.40;99.90
44565;DHT22;30275;51.822;-0.326;2023-02-15T13:05:54;15.50;99.90
44565;DHT22;30275;51.822;-0.326;2023-02-15T13:08:38;15.10;99.90
44565;DHT22;30275;51.822;-0.326;2023-02-15T13:13:58;15.90;99.90
44565;DHT22;30275;51.822;-0.326;2023-02-15T13:16:37;16.10;99.90
44565;DHT22;30275;51.822;-0.326;2023-02-15T13:19:18;16.10;99.90
44565;DHT22;30275;51.822;-0.326;2023-02-15T13:21:47;15.00;99.90
44565;DHT22;30275;51.822;-0.326;2023-02-15T13:24:25;14.40;99.90
44565;DHT22;30275;51.822;-0.326;2023-02-15T13:26:54;14.30;99.90
44565;DHT22;30275;51.822;-0.326;2023-02-15T13:29:31;14.30;99.90
44565;DHT22;30275;51.822;-0.326;2023-02-15T13:32:05;14.10;99.90
44565;DHT22;30275;51.822;-0.326;2023-02-15T13:34:36;13.80;99.90
44565;DHT22;30275;51.822;-0.326;2023-02-15T13:37:06;13.80;99.90
44565;DHT22;30275;51.822;-0.326;2023-02-15T13:42:40;13.80;99.90
44565;DHT22;30275;51.822;-0.326;2023-02-15T13:48:25;14.10;99.90
44565;DHT22;30275;51.822;-0.326;2023-02-15T13:51:24;14.10;99.90
44565;DHT22;30275;51.822;-0.326;2023-02-15T13:54:04;14.30;99.90
44565;DHT22;30275;51.822;-0.326;2023-02-15T14:05:21;14.40;99.90
44565;DHT22;30275;51.822;-0.326;2023-02-15T14:21:25;14.60;99.90
44565;DHT22;30275;51.822;-0.326;2023-02-15T14:24:16;14.80;99.90
44565;DHT22;30275;51.822;-0.326;2023-02-15T14:31:58;15.00;99.90
44565;DHT22;30275;51.822;-0.326;2023-02-15T14:37:10;14.90;99.90
44565;DHT22;30275;51.822;-0.326;2023-02-15T14:45:55;14.70;99.90
44565;DHT22;30275;51.822;-0.326;2023-02-15T14:50:49;14.70;99.90
44565;DHT22;30275;51.822;-0.326;2023-02-15T14:58:37;14.60;99.90
44565;DHT22;30275;51.822;-0.326;2023-02-15T15:01:09;14.60;99.90
44565;DHT22;30275;51.822;-0.326;2023-02-15T15:03:36;14.60;99.90
44565;DHT22;30275;51.822;-0.326;2023-02-15T15:06:24;14.60;99.90
44565;DHT22;30275;51.822;-0.326;2023-02-15T15:08:53;14.70;99.90
44565;DHT22;30275;51.822;-0.326;2023-02-15T15:14:00;14.60;99.90
44565;DHT22;30275;51.822;-0.326;2023-02-15T15:16:48;14.70;99.90
44565;DHT22;30275;51.822;-0.326;2023-02-15T15:22:22;14.80;99.90
44565;DHT22;30275;51.822;-0.326;2023-02-15T15:25:12;14.70;99.90
44565;DHT22;30275;51.822;-0.326;2023-02-15T15:27:56;14.50;99.90
44565;DHT22;30275;51.822;-0.326;2023-02-15T15:41:18;14.40;99.90
44565;DHT22;30275;51.822;-0.326;2023-02-15T15:49:36;14.30;99.90
44565;DHT22;30275;51.822;-0.326;2023-02-15T15:52:12;14.20;99.90
44565;DHT22;30275;51.822;-0.326;2023-02-15T15:54:40;14.30;99.90
44565;DHT22;30275;51.822;-0.326;2023-02-15T15:57:22;14.10;99.90
44565;DHT22;30275;51.822;-0.326;2023-02-15T15:59:50;13.90;99.90
44565;DHT22;30275;51.822;-0.326;2023-02-15T16:02:17;13.80;99.90
44565;DHT22;30275;51.822;-0.326;2023-02-15T16:04:44;13.80;99.90
44565;DHT22;30275;51.822;-0.326;2023-02-15T16:09:55;13.60;99.90
44565;DHT22;30275;51.822;-0.326;2023-02-15T16:12:21;13.50;99.90
44565;DHT22;30275;51.822;-0.326;2023-02-15T16:14:48;13.40;99.90
44565;DHT22;30275;51.822;-0.326;2023-02-15T16:17:25;13.30;99.90
44565;DHT22;30275;51.822;-0.326;2023-02-15T16:19:53;13.20;99.90
44565;DHT22;30275;51.822;-0.326;2023-02-15T16:22:24;13.20;99.90
44565;DHT22;30275;51.822;-0.326;2023-02-15T16:27:55;12.90;99.90
44565;DHT22;30275;51.822;-0.326;2023-02-15T16:33:14;12.80;99.90
44565;DHT22;30275;51.822;-0.326;2023-02-15T16:35:54;12.80;99.90
44565;DHT22;30275;51.822;-0.326;2023-02-15T16:41:25;12.70;99.90
44565;DHT22;30275;51.822;-0.326;2023-02-15T16:43:53;12.70;99.90
44565;DHT22;30275;51.822;-0.326;2023-02-15T16:46:31;12.60;99.90
44565;DHT22;30275;51.822;-0.326;2023-02-15T16:49:07;12.60;99.90
44565;DHT22;30275;51.822;-0.326;2023-02-15T16:51:34;12.50;99.90
44565;DHT22;30275;51.822;-0.326;2023-02-15T16:54:06;12.40;99.90
44565;DHT22;30275;51.822;-0.326;2023-02-15T16:56:33;12.40;99.90
44565;DHT22;30275;51.822;-0.326;2023-02-15T16:58:59;12.40;99.90
44565;DHT22;30275;51.822;-0.326;2023-02-15T17:01:30;12.30;99.90
44565;DHT22;30275;51.822;-0.326;2023-02-15T17:04:32;12.30;99.90
44565;DHT22;30275;51.822;-0.326;2023-02-15T17:07:06;12.20;99.90
44565;DHT22;30275;51.822;-0.326;2023-02-15T17:09:33;12.10;99.90
44565;DHT22;30275;51.822;-0.326;2023-02-15T17:11:59;12.10;99.90
44565;DHT22;30275;51.822;-0.326;2023-02-15T17:14:28;12.10;99.90
44565;DHT22;30275;51.822;-0.326;2023-02-15T17:16:59;12.00;99.90
44565;DHT22;30275;51.822;-0.326;2023-02-15T17:19:31;12.00;99.90
44565;DHT22;30275;51.822;-0.326;2023-02-15T17:22:03;12.00;99.90
44565;DHT22;30275;51.822;-0.326;2023-02-15T17:27:04;11.90;99.90
44565;DHT22;30275;51.822;-0.326;2023-02-15T17:32:10;11.80;99.90
44565;DHT22;30275;51.822;-0.326;2023-02-15T17:34:47;11.90;99.90
44565;DHT22;30275;51.822;-0.326;2023-02-15T17:37:27;11.90;99.90
44565;DHT22;30275;51.822;-0.326;2023-02-15T17:39:54;11.90;99.90
44565;DHT22;30275;51.822;-0.326;2023-02-15T17:42:20;11.80;99.90
44565;DHT22;30275;51.822;-0.326;2023-02-15T17:44:46;11.80;99.90
44565;DHT22;30275;51.822;-0.326;2023-02-15T17:47:20;11.80;99.90
44565;DHT22;30275;51.822;-0.326;2023-02-15T17:49:47;11.80;99.90
44565;DHT22;30275;51.822;-0.326;2023-02-15T17:52:15;11.80;99.90
44565;DHT22;30275;51.822;-0.326;2023-02-15T17:54:42;11.80;99.90
44565;DHT22;30275;51.822;-0.326;2023-02-15T17:57:28;11.80;99.90
44565;DHT22;30275;51.822;-0.326;2023-02-15T17:59:54;11.70;99.90
44565;DHT22;30275;51.822;-0.326;2023-02-15T18:02:38;11.70;99.90
44565;DHT22;30275;51.822;-0.326;2023-02-15T18:05:23;11.60;99.90
44565;DHT22;30275;51.822;-0.326;2023-02-15T18:08:15;11.60;99.90
44565;DHT22;30275;51.822;-0.326;2023-02-15T18:11:00;11.60;99.90
44565;DHT22;30275;51.822;-0.326;2023-02-15T18:13:44;11.50;99.90
44565;DHT22;30275;51.822;-0.326;2023-02-15T18:16:16;11.50;99.90
44565;DHT22;30275;51.822;-0.326;2023-02-15T18:18:45;11.50;99.90
44565;DHT22;30275;51.822;-0.326;2023-02-15T18:21:11;11.50;99.90
44565;DHT22;30275;51.822;-0.326;2023-02-15T18:23:38;11.50;99.90
44565;DHT22;30275;51.822;-0.326;2023-02-15T18:26:04;11.60;99.90
44565;DHT22;30275;51.822;-0.326;2023-02-15T18:28:30;11.50;99.90
44565;DHT22;30275;51.822;-0.326;2023-02-15T18:30:55;11.50;99.90
44565;DHT22;30275;51.822;-0.326;2023-02-15T18:33:38;11.50;99.90
44565;DHT22;30275;51.822;-0.326;2023-02-15T18:36:06;11.40;99.90
44565;DHT22;30275;51.822;-0.326;2023-02-15T18:38:33;11.20;99.90
44565;DHT22;30275;51.822;-0.326;2023-02-15T18:41:00;11.30;99.90